createdAt,value
2023-02-17T00:00:23.047Z,467.00
2023-02-17T00:01:18.181Z,468.00
2023-02-17T00:02:13.196Z,473.00
2023-02-17T00:03:09.252Z,473.00
2023-02-17T00:04:04.559Z,470.00
2023-02-17T00:05:00.328Z,474.00
2023-02-17T00:05:55.376Z,476.00
2023-02-17T00:06:50.711Z,477.00
2023-02-17T00:07:46.450Z,477.00
2023-02-17T00:08:41.718Z,474.00
2023-02-17T00:09:37.647Z,474.00
2023-02-17T00:10:32.105Z,470.00
2023-02-17T00:11:27.146Z,467.00
2023-02-17T00:12:22.614Z,474.00
2023-02-17T00:13:17.913Z,468.00
2023-02-17T00:14:12.939Z,478.00
2023-02-17T00:15:08.682Z,468.00
2023-02-17T00:16:04.324Z,480.00
2023-02-17T00:16:59.193Z,475.00
2023-02-17T00:17:54.324Z,468.00
2023-02-17T00:18:49.462Z,473.00
2023-02-17T00:19:44.373Z,467.00
2023-02-17T00:20:39.394Z,474.00
2023-02-17T00:21:34.428Z,473.00
2023-02-17T00:22:29.414Z,472.00
2023-02-17T00:23:24.430Z,471.00
2023-02-17T00:24:19.628Z,474.00
2023-02-17T00:25:14.544Z,479.00
2023-02-17T00:26:09.601Z,475.00
2023-02-17T00:27:04.628Z,469.00
2023-02-17T00:27:59.651Z,474.00
2023-02-17T00:28:54.904Z,468.00
2023-02-17T00:29:49.989Z,473.00
2023-02-17T00:30:46.371Z,474.00
2023-02-17T00:31:41.465Z,477.00
2023-02-17T00:32:36.738Z,472.00
2023-02-17T00:33:32.011Z,475.00
2023-02-17T00:34:27.083Z,473.00
2023-02-17T00:35:22.293Z,470.00
2023-02-17T00:36:17.470Z,467.00
2023-02-17T00:37:12.608Z,471.00
2023-02-17T00:38:07.913Z,475.00
2023-02-17T00:39:03.137Z,469.00
2023-02-17T00:39:58.422Z,477.00
2023-02-17T00:40:53.542Z,476.00
2023-02-17T00:41:48.581Z,465.00
2023-02-17T00:44:08.791Z,483.00
2023-02-17T00:45:05.703Z,481.00
2023-02-17T00:45:59.354Z,480.00
2023-02-17T00:46:54.197Z,476.00
2023-02-17T00:47:49.326Z,473.00
2023-02-17T00:48:44.669Z,487.00
2023-02-17T00:49:39.870Z,475.00
2023-02-17T00:50:35.014Z,479.00
2023-02-17T00:51:30.270Z,478.00
2023-02-17T00:52:25.317Z,483.00
2023-02-17T00:53:20.442Z,478.00
2023-02-17T00:54:15.859Z,479.00
2023-02-17T00:55:10.871Z,484.00
2023-02-17T00:56:06.451Z,484.00
2023-02-17T00:57:01.476Z,480.00
2023-02-17T00:57:56.450Z,482.00
2023-02-17T00:58:51.575Z,480.00
2023-02-17T00:59:46.740Z,478.00
2023-02-17T01:00:41.888Z,482.00
2023-02-17T01:01:37.223Z,478.00
2023-02-17T01:02:32.518Z,477.00
2023-02-17T01:03:27.510Z,480.00
2023-02-17T01:04:22.924Z,479.00
2023-02-17T01:05:17.954Z,476.00
2023-02-17T01:06:13.063Z,482.00
2023-02-17T01:07:08.385Z,481.00
2023-02-17T01:08:03.474Z,482.00
2023-02-17T01:08:58.557Z,475.00
2023-02-17T01:09:53.704Z,478.00
2023-02-17T01:10:48.957Z,479.00
2023-02-17T01:11:44.206Z,478.00
2023-02-17T01:12:39.881Z,480.00
2023-02-17T01:13:34.563Z,484.00
2023-02-17T01:14:29.837Z,477.00
2023-02-17T01:15:24.964Z,479.00
2023-02-17T01:16:20.161Z,479.00
2023-02-17T01:17:15.579Z,479.00
2023-02-17T01:18:10.529Z,477.00
2023-02-17T01:19:05.660Z,469.00
2023-02-17T01:21:26.484Z,481.00
2023-02-17T01:22:21.495Z,483.00
2023-02-17T01:23:16.621Z,480.00
2023-02-17T01:24:12.019Z,478.00
2023-02-17T01:25:07.088Z,477.00
2023-02-17T01:26:02.278Z,474.00
2023-02-17T01:26:57.408Z,479.00
2023-02-17T01:27:52.662Z,478.00
2023-02-17T01:28:47.938Z,480.00
2023-02-17T01:29:43.103Z,479.00
2023-02-17T01:30:38.455Z,479.00
2023-02-17T01:31:33.761Z,478.00
2023-02-17T01:32:28.848Z,483.00
2023-02-17T01:33:23.828Z,474.00
2023-02-17T01:34:18.986Z,478.00
2023-02-17T01:35:14.119Z,476.00
2023-02-17T01:36:09.276Z,481.00
2023-02-17T01:37:04.402Z,476.00
2023-02-17T01:37:59.552Z,475.00
2023-02-17T01:38:54.648Z,476.00
2023-02-17T01:39:49.825Z,477.00
2023-02-17T01:40:45.174Z,481.00
2023-02-17T01:41:40.320Z,473.00
2023-02-17T01:42:35.451Z,477.00
2023-02-17T01:43:30.592Z,475.00
2023-02-17T01:44:25.734Z,476.00
2023-02-17T01:45:20.983Z,480.00
2023-02-17T01:46:16.312Z,480.00
2023-02-17T01:47:11.315Z,479.00
2023-02-17T01:48:06.418Z,476.00
2023-02-17T01:49:01.712Z,474.00
2023-02-17T01:49:57.624Z,476.00
2023-02-17T01:50:52.278Z,476.00
2023-02-17T01:51:47.540Z,476.00
2023-02-17T01:52:42.562Z,478.00
2023-02-17T01:53:37.915Z,482.00
2023-02-17T01:54:32.944Z,477.00
2023-02-17T01:55:28.163Z,477.00
2023-02-17T01:56:23.324Z,474.00
2023-02-17T01:57:18.471Z,480.00
2023-02-17T01:58:13.732Z,483.00
2023-02-17T01:59:08.949Z,478.00
2023-02-17T02:00:04.109Z,475.00
2023-02-17T02:00:59.238Z,479.00
2023-02-17T02:01:54.712Z,478.00
2023-02-17T02:02:49.843Z,476.00
2023-02-17T02:03:44.860Z,478.00
2023-02-17T02:04:40.017Z,481.00
2023-02-17T02:05:37.638Z,479.00
2023-02-17T02:06:30.252Z,485.00
2023-02-17T02:07:25.416Z,474.00
2023-02-17T02:08:20.692Z,476.00
2023-02-17T02:09:15.965Z,482.00
2023-02-17T02:10:11.120Z,478.00
2023-02-17T02:11:06.387Z,479.00
2023-02-17T02:12:01.505Z,466.00
2023-02-17T02:12:56.546Z,473.00
2023-02-17T02:13:51.655Z,471.00
2023-02-17T02:14:46.845Z,476.00
2023-02-17T02:15:42.108Z,477.00
2023-02-17T02:16:37.844Z,476.00
2023-02-17T02:17:32.433Z,475.00
2023-02-17T02:18:27.703Z,475.00
2023-02-17T02:19:22.837Z,479.00
2023-02-17T02:20:18.004Z,476.00
2023-02-17T02:21:13.141Z,476.00
2023-02-17T02:22:08.574Z,476.00
2023-02-17T02:23:03.597Z,471.00
2023-02-17T02:23:59.001Z,475.00
2023-02-17T02:24:54.024Z,475.00
2023-02-17T02:25:49.176Z,479.00
2023-02-17T02:26:44.283Z,479.00
2023-02-17T02:27:39.464Z,474.00
2023-02-17T02:28:34.624Z,471.00
2023-02-17T02:29:29.893Z,480.00
2023-02-17T02:30:24.945Z,473.00
2023-02-17T02:31:20.192Z,479.00
2023-02-17T02:32:15.368Z,477.00
2023-02-17T02:33:10.453Z,473.00
2023-02-17T02:34:05.579Z,479.00
2023-02-17T02:35:00.879Z,475.00
2023-02-17T02:35:55.970Z,477.00
2023-02-17T02:36:51.262Z,482.00
2023-02-17T02:37:46.310Z,478.00
2023-02-17T02:38:41.721Z,474.00
2023-02-17T02:39:36.703Z,478.00
2023-02-17T02:40:31.859Z,474.00
2023-02-17T02:41:26.974Z,480.00
2023-02-17T02:42:22.247Z,475.00
2023-02-17T02:43:17.260Z,471.00
2023-02-17T02:44:12.687Z,476.00
2023-02-17T02:45:07.850Z,476.00
2023-02-17T02:46:02.872Z,477.00
2023-02-17T02:46:58.057Z,472.00
2023-02-17T02:47:53.392Z,474.00
2023-02-17T02:48:49.328Z,475.00
2023-02-17T02:49:44.476Z,479.00
2023-02-17T02:50:39.606Z,470.00
2023-02-17T02:51:34.907Z,476.00
2023-02-17T02:52:30.190Z,478.00
2023-02-17T02:53:25.352Z,473.00
2023-02-17T02:54:20.474Z,482.00
2023-02-17T02:55:15.529Z,476.00
2023-02-17T02:56:10.647Z,477.00
2023-02-17T02:57:05.936Z,473.00
2023-02-17T02:58:01.082Z,473.00
2023-02-17T02:58:56.513Z,478.00
2023-02-17T02:59:52.361Z,476.00
2023-02-17T03:00:47.397Z,472.00
2023-02-17T03:01:42.572Z,474.00
2023-02-17T03:02:38.473Z,480.00
2023-02-17T03:03:33.732Z,471.00
2023-02-17T03:04:29.024Z,475.00
2023-02-17T03:05:25.292Z,477.00
2023-02-17T03:06:20.706Z,474.00
2023-02-17T03:07:16.461Z,471.00
2023-02-17T03:08:11.709Z,478.00
2023-02-17T03:09:07.133Z,478.00
2023-02-17T03:10:02.872Z,475.00
2023-02-17T03:10:58.006Z,476.00
2023-02-17T03:11:53.854Z,474.00
2023-02-17T03:12:49.001Z,475.00
2023-02-17T03:13:44.460Z,477.00
2023-02-17T03:14:40.154Z,472.00
2023-02-17T03:15:35.369Z,479.00
2023-02-17T03:16:30.525Z,473.00
2023-02-17T03:17:27.163Z,473.00
2023-02-17T03:18:22.231Z,475.00
2023-02-17T03:19:18.115Z,470.00
2023-02-17T03:20:13.243Z,471.00
2023-02-17T03:21:08.520Z,473.00
2023-02-17T03:22:04.234Z,475.00
2023-02-17T03:22:59.579Z,474.00
2023-02-17T03:23:55.364Z,475.00
2023-02-17T03:24:50.411Z,475.00
2023-02-17T03:25:45.749Z,475.00
2023-02-17T03:26:41.611Z,477.00
2023-02-17T03:27:36.636Z,474.00
2023-02-17T03:28:31.940Z,481.00
2023-02-17T03:29:28.194Z,479.00
2023-02-17T03:30:23.555Z,474.00
2023-02-17T03:31:19.354Z,478.00
2023-02-17T03:32:14.639Z,476.00
2023-02-17T03:33:09.779Z,476.00
2023-02-17T03:34:05.927Z,475.00
2023-02-17T03:35:01.038Z,473.00
2023-02-17T03:35:56.909Z,469.00
2023-02-17T03:36:51.923Z,477.00
2023-02-17T03:37:47.256Z,469.00
2023-02-17T03:38:42.973Z,479.00
2023-02-17T03:39:38.273Z,472.00
2023-02-17T03:40:33.416Z,472.00
2023-02-17T03:41:29.839Z,477.00
2023-02-17T03:42:25.025Z,481.00
2023-02-17T03:43:21.013Z,473.00
2023-02-17T03:44:16.136Z,473.00
2023-02-17T03:45:11.454Z,476.00
2023-02-17T03:46:07.482Z,483.00
2023-02-17T03:47:02.413Z,469.00
2023-02-17T03:47:58.135Z,477.00
2023-02-17T03:48:53.283Z,474.00
2023-02-17T03:49:48.582Z,476.00
2023-02-17T03:50:44.428Z,478.00
2023-02-17T03:51:39.591Z,472.00
2023-02-17T03:52:34.798Z,469.00
2023-02-17T03:53:31.195Z,470.00
2023-02-17T03:54:26.935Z,473.00
2023-02-17T03:55:22.268Z,477.00
2023-02-17T03:56:17.424Z,473.00
2023-02-17T03:57:12.690Z,470.00
2023-02-17T03:58:08.574Z,482.00
2023-02-17T03:59:03.718Z,474.00
2023-02-17T03:59:59.001Z,473.00
2023-02-17T04:00:54.143Z,479.00
2023-02-17T04:01:50.042Z,481.00
2023-02-17T04:02:45.588Z,473.00
2023-02-17T04:03:40.367Z,470.00
2023-02-17T04:04:37.157Z,475.00
2023-02-17T04:05:32.497Z,470.00
2023-02-17T04:06:28.219Z,474.00
2023-02-17T04:07:23.485Z,472.00
2023-02-17T04:08:18.780Z,474.00
2023-02-17T04:09:14.350Z,478.00
2023-02-17T04:10:09.803Z,475.00
2023-02-17T04:11:05.572Z,476.00
2023-02-17T04:12:00.810Z,471.00
2023-02-17T04:12:56.034Z,474.00
2023-02-17T04:13:51.746Z,475.00
2023-02-17T04:14:46.827Z,473.00
2023-02-17T04:15:42.219Z,474.00
2023-02-17T04:16:38.533Z,472.00
2023-02-17T04:17:33.524Z,474.00
2023-02-17T04:18:28.822Z,480.00
2023-02-17T04:19:24.132Z,472.00
2023-02-17T04:20:19.354Z,471.00
2023-02-17T04:21:14.377Z,474.00
2023-02-17T04:22:09.432Z,485.00
2023-02-17T04:23:04.401Z,476.00
2023-02-17T04:23:59.500Z,470.00
2023-02-17T04:24:54.527Z,478.00
2023-02-17T04:25:49.620Z,478.00
2023-02-17T04:26:44.612Z,476.00
2023-02-17T04:27:39.689Z,471.00
2023-02-17T04:28:38.238Z,475.00
2023-02-17T04:29:33.308Z,468.00
2023-02-17T04:30:28.406Z,481.00
2023-02-17T04:31:23.526Z,477.00
2023-02-17T04:32:18.573Z,472.00
2023-02-17T04:33:13.516Z,476.00
2023-02-17T04:34:08.725Z,472.00
2023-02-17T04:35:03.627Z,472.00
2023-02-17T04:35:58.698Z,472.00
2023-02-17T04:36:53.745Z,469.00
2023-02-17T04:37:48.810Z,469.00
2023-02-17T04:38:43.836Z,470.00
2023-02-17T04:39:39.232Z,472.00
2023-02-17T04:40:34.017Z,465.00
2023-02-17T04:41:29.028Z,474.00
2023-02-17T04:42:24.078Z,470.00
2023-02-17T04:43:19.079Z,475.00
2023-02-17T04:44:14.116Z,477.00
2023-02-17T04:45:09.267Z,471.00
2023-02-17T04:46:04.750Z,466.00
2023-02-17T04:46:59.329Z,469.00
2023-02-17T04:47:54.380Z,482.00
2023-02-17T04:48:49.382Z,472.00
2023-02-17T04:49:44.548Z,473.00
2023-02-17T04:50:39.445Z,474.00
2023-02-17T04:51:34.458Z,477.00
2023-02-17T04:52:29.465Z,473.00
2023-02-17T04:53:24.490Z,474.00
2023-02-17T04:54:19.592Z,471.00
2023-02-17T04:55:14.715Z,471.00
2023-02-17T04:56:09.735Z,473.00
2023-02-17T04:57:04.787Z,469.00
2023-02-17T04:57:59.818Z,474.00
2023-02-17T04:58:54.940Z,473.00
2023-02-17T04:59:50.075Z,475.00
2023-02-17T05:00:45.045Z,469.00
2023-02-17T05:01:40.186Z,471.00
2023-02-17T05:02:35.190Z,473.00
2023-02-17T05:03:30.199Z,469.00
2023-02-17T05:04:25.301Z,472.00
2023-02-17T05:05:20.373Z,468.00
2023-02-17T05:06:15.324Z,473.00
2023-02-17T05:07:10.513Z,468.00
2023-02-17T05:08:05.571Z,472.00
2023-02-17T05:09:02.227Z,466.00
2023-02-17T05:09:57.208Z,472.00
2023-02-17T05:10:52.375Z,472.00
2023-02-17T05:11:47.255Z,472.00
2023-02-17T05:12:42.316Z,475.00
2023-02-17T05:13:37.307Z,472.00
2023-02-17T05:14:32.340Z,470.00
2023-02-17T05:15:28.313Z,471.00
2023-02-17T05:16:22.748Z,477.00
2023-02-17T05:17:17.636Z,473.00
2023-02-17T05:18:12.708Z,467.00
2023-02-17T05:19:07.772Z,472.00
2023-02-17T05:20:03.401Z,472.00
2023-02-17T05:20:58.666Z,470.00
2023-02-17T05:21:53.990Z,481.00
2023-02-17T05:22:49.610Z,478.00
2023-02-17T05:23:44.927Z,474.00
2023-02-17T05:24:40.618Z,473.00
2023-02-17T05:25:35.793Z,464.00
2023-02-17T05:26:31.216Z,476.00
2023-02-17T05:27:27.064Z,468.00
2023-02-17T05:28:22.227Z,466.00
2023-02-17T05:29:17.408Z,473.00
2023-02-17T05:30:13.796Z,467.00
2023-02-17T05:31:09.115Z,463.00
2023-02-17T05:32:05.103Z,469.00
2023-02-17T05:33:00.030Z,471.00
2023-02-17T05:33:55.450Z,471.00
2023-02-17T05:34:51.187Z,467.00
2023-02-17T05:35:46.436Z,471.00
2023-02-17T05:36:42.400Z,475.00
2023-02-17T05:37:37.647Z,472.00
2023-02-17T05:38:32.689Z,474.00
2023-02-17T05:39:28.591Z,479.00
2023-02-17T05:40:23.801Z,475.00
2023-02-17T05:41:19.037Z,467.00
2023-02-17T05:42:15.493Z,475.00
2023-02-17T05:43:10.999Z,469.00
2023-02-17T05:44:06.466Z,477.00
2023-02-17T05:45:01.736Z,477.00
2023-02-17T05:45:56.898Z,469.00
2023-02-17T05:46:52.811Z,467.00
2023-02-17T05:47:48.020Z,468.00
2023-02-17T05:48:43.884Z,472.00
2023-02-17T05:49:39.057Z,470.00
2023-02-17T05:50:34.480Z,473.00
2023-02-17T05:51:30.151Z,472.00
2023-02-17T05:52:25.277Z,470.00
2023-02-17T05:53:20.478Z,468.00
2023-02-17T05:54:17.020Z,467.00
2023-02-17T05:55:12.219Z,472.00
2023-02-17T05:56:08.113Z,465.00
2023-02-17T05:57:03.242Z,468.00
2023-02-17T05:57:58.330Z,463.00
2023-02-17T05:58:54.173Z,472.00
2023-02-17T05:59:49.212Z,468.00
2023-02-17T06:00:45.196Z,470.00
2023-02-17T06:01:40.393Z,461.00
2023-02-17T06:02:35.763Z,468.00
2023-02-17T06:03:31.258Z,465.00
2023-02-17T06:04:26.794Z,471.00
2023-02-17T06:05:21.774Z,471.00
2023-02-17T06:06:16.934Z,470.00
2023-02-17T06:07:12.745Z,465.00
2023-02-17T06:08:07.917Z,470.00
2023-02-17T06:09:03.387Z,477.00
2023-02-17T06:09:59.485Z,470.00
2023-02-17T06:10:54.353Z,465.00
2023-02-17T06:11:50.401Z,468.00
2023-02-17T06:12:45.477Z,474.00
2023-02-17T06:13:40.977Z,466.00
2023-02-17T06:14:36.920Z,469.00
2023-02-17T06:15:32.193Z,467.00
2023-02-17T06:16:27.571Z,469.00
2023-02-17T06:17:23.899Z,468.00
2023-02-17T06:18:19.044Z,469.00
2023-02-17T06:19:14.939Z,469.00
2023-02-17T06:20:10.144Z,466.00
2023-02-17T06:21:05.320Z,471.00
2023-02-17T06:22:01.215Z,467.00
2023-02-17T06:22:56.404Z,472.00
2023-02-17T06:23:51.661Z,466.00
2023-02-17T06:24:46.932Z,468.00
2023-02-17T06:25:42.344Z,471.00
2023-02-17T06:26:37.400Z,470.00
2023-02-17T06:27:32.937Z,467.00
2023-02-17T06:28:29.203Z,469.00
2023-02-17T06:29:24.450Z,469.00
2023-02-17T06:30:19.910Z,473.00
2023-02-17T06:31:15.668Z,468.00
2023-02-17T06:32:11.044Z,468.00
2023-02-17T06:33:06.150Z,477.00
2023-02-17T06:34:01.440Z,470.00
2023-02-17T06:34:56.484Z,465.00
2023-02-17T06:35:51.562Z,470.00
2023-02-17T06:36:46.744Z,471.00
2023-02-17T06:37:42.095Z,472.00
2023-02-17T06:38:37.184Z,470.00
2023-02-17T06:39:36.142Z,467.00
2023-02-17T06:40:31.157Z,470.00
2023-02-17T06:41:26.990Z,470.00
2023-02-17T06:42:21.359Z,466.00
2023-02-17T06:43:17.087Z,468.00
2023-02-17T06:44:11.475Z,466.00
2023-02-17T06:45:06.679Z,461.00
2023-02-17T06:46:01.799Z,466.00
2023-02-17T06:46:56.802Z,481.00
2023-02-17T06:47:51.900Z,470.00
2023-02-17T06:48:47.011Z,470.00
2023-02-17T06:49:42.079Z,460.00
2023-02-17T06:50:37.162Z,477.00
2023-02-17T06:51:32.691Z,467.00
2023-02-17T06:52:28.586Z,468.00
2023-02-17T06:53:23.626Z,470.00
2023-02-17T06:54:18.605Z,470.00
2023-02-17T06:55:13.693Z,462.00
2023-02-17T06:56:08.769Z,463.00
2023-02-17T06:57:03.796Z,467.00
2023-02-17T06:58:01.873Z,461.00
2023-02-17T06:58:53.910Z,467.00
2023-02-17T06:59:48.981Z,464.00
2023-02-17T07:00:43.993Z,461.00
2023-02-17T07:01:39.150Z,464.00
2023-02-17T07:02:34.214Z,465.00
2023-02-17T07:03:29.387Z,462.00
2023-02-17T07:04:24.266Z,465.00
2023-02-17T07:05:19.298Z,466.00
2023-02-17T07:06:14.585Z,463.00
2023-02-17T07:07:09.595Z,464.00
2023-02-17T07:08:04.796Z,465.00
2023-02-17T07:08:59.901Z,481.00
2023-02-17T07:09:58.326Z,464.00
2023-02-17T07:10:53.473Z,467.00
2023-02-17T07:11:48.496Z,463.00
2023-02-17T07:12:43.618Z,467.00
2023-02-17T07:13:38.700Z,465.00
2023-02-17T07:14:33.916Z,460.00
2023-02-17T07:15:29.000Z,467.00
2023-02-17T07:16:24.255Z,463.00
2023-02-17T07:17:19.773Z,468.00
2023-02-17T07:18:15.074Z,463.00
2023-02-17T07:19:10.754Z,463.00
2023-02-17T07:21:29.698Z,466.00
2023-02-17T07:22:24.993Z,458.00
2023-02-17T07:23:20.449Z,468.00
2023-02-17T07:24:16.129Z,473.00
2023-02-17T07:25:11.376Z,473.00
2023-02-17T07:26:06.827Z,466.00
2023-02-17T07:27:02.040Z,472.00
2023-02-17T07:27:58.485Z,468.00
2023-02-17T07:28:52.891Z,463.00
2023-02-17T07:29:48.173Z,466.00
2023-02-17T07:30:43.745Z,463.00
2023-02-17T07:31:39.331Z,468.00
2023-02-17T07:32:34.439Z,472.00
2023-02-17T07:33:29.811Z,462.00
2023-02-17T07:34:25.156Z,456.00
2023-02-17T07:35:20.535Z,464.00
2023-02-17T07:36:15.902Z,461.00
2023-02-17T07:37:11.571Z,466.00
2023-02-17T07:38:06.505Z,466.00
2023-02-17T07:39:02.082Z,463.00
2023-02-17T07:39:57.381Z,460.00
2023-02-17T07:40:52.733Z,462.00
2023-02-17T07:41:48.168Z,458.00
2023-02-17T07:42:43.447Z,463.00
2023-02-17T07:43:38.684Z,463.00
2023-02-17T07:44:34.192Z,465.00
2023-02-17T07:45:29.469Z,459.00
2023-02-17T07:46:25.094Z,465.00
2023-02-17T07:47:20.308Z,462.00
2023-02-17T07:48:15.559Z,467.00
2023-02-17T07:49:10.959Z,465.00
2023-02-17T07:50:06.491Z,465.00
2023-02-17T07:51:01.666Z,474.00
2023-02-17T07:51:57.337Z,461.00
2023-02-17T07:52:52.571Z,465.00
2023-02-17T07:53:47.938Z,468.00
2023-02-17T07:54:43.085Z,473.00
2023-02-17T07:55:38.553Z,465.00
2023-02-17T07:56:33.807Z,483.00
2023-02-17T07:57:29.214Z,471.00
2023-02-17T07:58:24.915Z,464.00
2023-02-17T07:59:20.170Z,474.00
2023-02-17T08:00:15.572Z,463.00
2023-02-17T08:01:10.989Z,466.00
2023-02-17T08:02:06.384Z,462.00
2023-02-17T08:03:01.667Z,464.00
2023-02-17T08:03:57.102Z,473.00
2023-02-17T08:04:52.422Z,464.00
2023-02-17T08:05:49.071Z,460.00
2023-02-17T08:06:43.153Z,468.00
2023-02-17T08:07:38.587Z,469.00
2023-02-17T08:08:33.973Z,471.00
2023-02-17T08:09:29.395Z,464.00
2023-02-17T08:10:24.809Z,462.00
2023-02-17T08:11:20.376Z,467.00
2023-02-17T08:12:15.820Z,468.00
2023-02-17T08:13:11.011Z,466.00
2023-02-17T08:14:06.354Z,482.00
2023-02-17T08:15:01.711Z,474.00
2023-02-17T08:15:57.298Z,472.00
2023-02-17T08:16:52.753Z,465.00
2023-02-17T08:17:50.683Z,472.00
2023-02-17T08:18:43.279Z,455.00
2023-02-17T08:19:48.071Z,459.00
2023-02-17T08:20:35.484Z,456.00
2023-02-17T08:21:29.494Z,464.00
2023-02-17T08:22:24.992Z,460.00
2023-02-17T08:23:20.474Z,463.00
2023-02-17T08:24:15.785Z,477.00
2023-02-17T08:25:11.482Z,469.00
2023-02-17T08:26:06.977Z,461.00
2023-02-17T08:27:02.014Z,462.00
2023-02-17T08:27:57.533Z,456.00
2023-02-17T08:28:52.771Z,466.00
2023-02-17T08:29:48.362Z,462.00
2023-02-17T08:30:43.697Z,459.00
2023-02-17T08:31:39.044Z,457.00
2023-02-17T08:32:34.544Z,458.00
2023-02-17T08:33:29.747Z,455.00
2023-02-17T08:34:25.293Z,457.00
2023-02-17T08:35:20.629Z,457.00
2023-02-17T08:36:15.917Z,459.00
2023-02-17T08:37:11.586Z,456.00
2023-02-17T08:38:06.957Z,455.00
2023-02-17T08:39:02.465Z,448.00
2023-02-17T08:39:58.000Z,451.00
2023-02-17T08:40:53.487Z,455.00
2023-02-17T08:41:49.108Z,452.00
2023-02-17T08:42:44.615Z,449.00
2023-02-17T08:43:40.064Z,453.00
2023-02-17T08:44:37.843Z,438.00
2023-02-17T08:45:30.712Z,443.00
2023-02-17T08:46:26.122Z,462.00
2023-02-17T08:47:21.757Z,476.00
2023-02-17T08:48:17.116Z,464.00
2023-02-17T08:49:12.609Z,469.00
2023-02-17T08:50:08.233Z,477.00
2023-02-17T08:51:03.856Z,475.00
2023-02-17T08:51:59.172Z,480.00
2023-02-17T08:52:54.682Z,482.00
2023-02-17T08:53:50.266Z,472.00
2023-02-17T08:54:46.045Z,479.00
2023-02-17T08:55:49.144Z,477.00
2023-02-17T08:56:38.032Z,472.00
2023-02-17T08:57:32.427Z,477.00
2023-02-17T08:58:27.989Z,471.00
2023-02-17T08:59:23.308Z,474.00
2023-02-17T09:00:18.871Z,468.00
2023-02-17T09:01:14.214Z,468.00
2023-02-17T09:02:09.519Z,468.00
2023-02-17T09:03:05.019Z,463.00
2023-02-17T09:04:00.757Z,469.00
2023-02-17T09:04:56.353Z,470.00
2023-02-17T09:05:51.794Z,465.00
2023-02-17T09:06:46.963Z,469.00
2023-02-17T09:07:42.581Z,476.00
2023-02-17T09:08:38.006Z,478.00
2023-02-17T09:09:33.542Z,480.00
2023-02-17T09:10:28.938Z,479.00
2023-02-17T09:11:24.537Z,476.00
2023-02-17T09:12:20.044Z,476.00
2023-02-17T09:13:15.756Z,470.00
2023-02-17T09:14:11.183Z,473.00
2023-02-17T09:15:06.547Z,475.00
2023-02-17T09:16:02.332Z,473.00
2023-02-17T09:16:57.694Z,473.00
2023-02-17T09:17:53.189Z,472.00
2023-02-17T09:18:48.581Z,466.00
2023-02-17T09:19:44.186Z,472.00
2023-02-17T09:20:39.753Z,474.00
2023-02-17T09:21:35.728Z,474.00
2023-02-17T09:22:32.456Z,474.00
2023-02-17T09:23:26.554Z,475.00
2023-02-17T09:24:21.652Z,473.00
2023-02-17T09:25:17.266Z,464.00
2023-02-17T09:26:12.752Z,474.00
2023-02-17T09:27:08.032Z,477.00
2023-02-17T09:28:03.616Z,476.00
2023-02-17T09:28:59.146Z,501.00
2023-02-17T09:29:54.759Z,476.00
2023-02-17T09:30:50.045Z,479.00
2023-02-17T09:31:45.550Z,475.00
2023-02-17T09:32:40.842Z,470.00
2023-02-17T09:33:36.402Z,474.00
2023-02-17T09:34:31.825Z,477.00
2023-02-17T09:35:27.419Z,471.00
2023-02-17T09:36:22.877Z,466.00
2023-02-17T09:37:18.348Z,468.00
2023-02-17T09:38:14.240Z,467.00
2023-02-17T09:39:11.573Z,472.00
2023-02-17T09:40:04.905Z,470.00
2023-02-17T09:41:00.800Z,473.00
2023-02-17T09:41:56.092Z,472.00
2023-02-17T09:42:51.671Z,467.00
2023-02-17T09:43:47.244Z,471.00
2023-02-17T09:44:42.808Z,472.00
2023-02-17T09:45:38.765Z,476.00
2023-02-17T09:46:33.435Z,471.00
2023-02-17T09:47:29.090Z,474.00
2023-02-17T09:48:24.583Z,470.00
2023-02-17T09:49:20.985Z,468.00
2023-02-17T09:50:15.516Z,467.00
2023-02-17T09:51:12.618Z,466.00
2023-02-17T09:52:06.390Z,474.00
2023-02-17T09:53:02.024Z,471.00
2023-02-17T09:53:57.708Z,470.00
2023-02-17T09:54:53.211Z,471.00
2023-02-17T09:55:49.070Z,476.00
2023-02-17T09:56:44.038Z,470.00
2023-02-17T09:57:39.543Z,477.00
2023-02-17T09:58:35.173Z,469.00
2023-02-17T09:59:30.679Z,476.00
2023-02-17T10:00:26.012Z,474.00
2023-02-17T10:01:21.630Z,469.00
2023-02-17T10:02:16.963Z,469.00
2023-02-17T10:03:13.724Z,473.00
2023-02-17T10:04:07.733Z,481.00
2023-02-17T10:05:03.371Z,478.00
2023-02-17T10:05:59.199Z,475.00
2023-02-17T10:06:54.190Z,473.00
2023-02-17T10:07:49.541Z,478.00
2023-02-17T10:08:44.999Z,478.00
2023-02-17T10:09:40.458Z,476.00
2023-02-17T10:10:35.975Z,474.00
2023-02-17T10:11:31.798Z,471.00
2023-02-17T10:12:27.175Z,472.00
2023-02-17T10:13:22.454Z,471.00
2023-02-17T10:14:18.056Z,475.00
2023-02-17T10:15:14.412Z,475.00
2023-02-17T10:16:09.101Z,474.00
2023-02-17T10:17:04.355Z,469.00
2023-02-17T10:17:59.504Z,472.00
2023-02-17T10:18:54.978Z,476.00
2023-02-17T10:19:50.542Z,477.00
2023-02-17T10:20:46.143Z,472.00
2023-02-17T10:21:41.556Z,470.00
2023-02-17T10:22:37.166Z,463.00
2023-02-17T10:23:32.492Z,474.00
2023-02-17T10:24:27.886Z,473.00
2023-02-17T10:25:23.523Z,471.00
2023-02-17T10:26:18.857Z,473.00
2023-02-17T10:27:14.041Z,470.00
2023-02-17T10:28:09.600Z,474.00
2023-02-17T10:29:05.151Z,479.00
2023-02-17T10:30:00.483Z,478.00
2023-02-17T10:30:55.875Z,477.00
2023-02-17T10:31:51.214Z,474.00
2023-02-17T10:32:46.878Z,476.00
2023-02-17T10:33:42.171Z,476.00
2023-02-17T10:34:37.512Z,473.00
2023-02-17T10:35:32.920Z,471.00
2023-02-17T10:36:28.379Z,475.00
2023-02-17T10:37:23.830Z,476.00
2023-02-17T10:38:19.233Z,472.00
2023-02-17T10:39:14.868Z,471.00
2023-02-17T10:40:10.548Z,480.00
2023-02-17T10:41:05.687Z,475.00
2023-02-17T10:42:01.390Z,472.00
2023-02-17T10:42:56.667Z,474.00
2023-02-17T10:43:52.059Z,471.00
2023-02-17T10:44:47.713Z,473.00
2023-02-17T10:45:43.250Z,474.00
2023-02-17T10:46:38.576Z,475.00
2023-02-17T10:47:34.127Z,475.00
2023-02-17T10:48:29.567Z,470.00
2023-02-17T10:49:25.166Z,476.00
2023-02-17T10:50:20.699Z,471.00
2023-02-17T10:51:16.131Z,475.00
2023-02-17T10:52:11.329Z,473.00
2023-02-17T10:53:07.184Z,474.00
2023-02-17T10:54:02.486Z,474.00
2023-02-17T10:54:57.848Z,479.00
2023-02-17T10:55:53.254Z,481.00
2023-02-17T10:56:48.767Z,469.00
2023-02-17T10:57:44.097Z,471.00
2023-02-17T10:58:39.481Z,475.00
2023-02-17T10:59:35.254Z,466.00
2023-02-17T11:00:30.654Z,467.00
2023-02-17T11:01:25.985Z,475.00
2023-02-17T11:02:21.431Z,475.00
2023-02-17T11:03:17.177Z,477.00
2023-02-17T11:04:13.801Z,469.00
2023-02-17T11:05:08.172Z,469.00
2023-02-17T11:06:03.495Z,464.00
2023-02-17T11:06:58.840Z,469.00
2023-02-17T11:07:54.321Z,471.00
2023-02-17T11:08:49.792Z,470.00
2023-02-17T11:09:45.423Z,473.00
2023-02-17T11:10:41.004Z,475.00
2023-02-17T11:11:36.463Z,476.00
2023-02-17T11:12:31.904Z,473.00
2023-02-17T11:13:27.396Z,469.00
2023-02-17T11:14:22.884Z,479.00
2023-02-17T11:15:18.835Z,466.00
2023-02-17T11:16:14.477Z,465.00
2023-02-17T11:17:09.564Z,464.00
2023-02-17T11:18:04.982Z,468.00
2023-02-17T11:19:00.329Z,461.00
2023-02-17T11:19:55.918Z,465.00
2023-02-17T11:20:51.713Z,465.00
2023-02-17T11:21:46.989Z,469.00
2023-02-17T11:22:42.534Z,484.00
2023-02-17T11:23:37.863Z,486.00
2023-02-17T11:24:34.334Z,491.00
2023-02-17T11:25:29.009Z,493.00
2023-02-17T11:26:24.472Z,501.00
2023-02-17T11:27:19.809Z,491.00
2023-02-17T11:28:15.564Z,495.00
2023-02-17T11:29:10.905Z,495.00
2023-02-17T11:30:06.483Z,498.00
2023-02-17T11:31:01.992Z,493.00
2023-02-17T11:31:57.472Z,493.00
2023-02-17T11:32:52.975Z,495.00
2023-02-17T11:33:48.605Z,492.00
2023-02-17T11:34:44.072Z,495.00